sensor_id;sensor_type;location;lat;lon;timestamp;pressure;altitude;pressure_sealevel;temperature;humidity
64064;BME280;50314;50.618;10.642;2023-05-08T00:01:04;97154.19;;;20.47;22.55
64064;BME280;50314;50.618;10.642;2023-05-08T00:03:30;97159.53;;;20.47;22.87
64064;BME280;50314;50.618;10.642;2023-05-08T00:05:55;97148.97;;;20.46;22.86
64064;BME280;50314;50.618;10.642;2023-05-08T00:08:21;97151.84;;;20.44;22.78
64064;BME280;50314;50.618;10.642;2023-05-08T00:10:46;97150.16;;;20.43;22.64
64064;BME280;50314;50.618;10.642;2023-05-08T00:13:12;97151.00;;;20.44;22.85
64064;BME280;50314;50.618;10.642;2023-05-08T00:15:37;97142.16;;;20.43;22.70
64064;BME280;50314;50.618;10.642;2023-05-08T00:18:03;97152.16;;;20.41;22.77
64064;BME280;50314;50.618;10.642;2023-05-08T00:20:28;97155.84;;;20.40;22.63
64064;BME280;50314;50.618;10.642;2023-05-08T00:22:53;97153.16;;;20.40;22.64
64064;BME280;50314;50.618;10.642;2023-05-08T00:25:19;97163.19;;;20.38;22.89
64064;BME280;50314;50.618;10.642;2023-05-08T00:27:44;97161.53;;;20.37;22.98
64064;BME280;50314;50.618;10.642;2023-05-08T00:30:10;97163.38;;;20.36;22.98
64064;BME280;50314;50.618;10.642;2023-05-08T00:32:36;97162.50;;;20.36;22.71
64064;BME280;50314;50.618;10.642;2023-05-08T00:35:01;97162.69;;;20.34;23.04
64064;BME280;50314;50.618;10.642;2023-05-08T00:37:27;97167.34;;;20.32;22.65
64064;BME280;50314;50.618;10.642;2023-05-08T00:39:52;97170.03;;;20.32;22.98
64064;BME280;50314;50.618;10.642;2023-05-08T00:42:18;97169.38;;;20.30;22.77
64064;BME280;50314;50.618;10.642;2023-05-08T00:44:43;97164.16;;;20.29;22.89
64064;BME280;50314;50.618;10.642;2023-05-08T00:47:09;97161.50;;;20.29;22.89
64064;BME280;50314;50.618;10.642;2023-05-08T00:49:35;97163.50;;;20.27;23.19
64064;BME280;50314;50.618;10.642;2023-05-08T00:52:02;97162.81;;;20.25;23.28
64064;BME280;50314;50.618;10.642;2023-05-08T00:54:29;97169.19;;;20.24;23.02
64064;BME280;50314;50.618;10.642;2023-05-08T00:56:55;97169.31;;;20.22;23.11
64064;BME280;50314;50.618;10.642;2023-05-08T00:59:21;97173.00;;;20.21;23.11
64064;BME280;50314;50.618;10.642;2023-05-08T01:01:48;97177.53;;;20.21;23.52
64064;BME280;50314;50.618;10.642;2023-05-08T01:04:16;97182.88;;;20.21;23.07
64064;BME280;50314;50.618;10.642;2023-05-08T01:06:44;97177.84;;;20.17;22.94
64064;BME280;50314;50.618;10.642;2023-05-08T01:09:09;97176.31;;;20.15;23.18
64064;BME280;50314;50.618;10.642;2023-05-08T01:14:35;97176.66;;;20.12;23.39
64064;BME280;50314;50.618;10.642;2023-05-08T01:17:22;97177.97;;;20.08;23.42
64064;BME280;50314;50.618;10.642;2023-05-08T01:22:59;97184.16;;;20.08;23.06
64064;BME280;50314;50.618;10.642;2023-05-08T01:33:46;97186.09;;;19.98;23.19
64064;BME280;50314;50.618;10.642;2023-05-08T01:39:00;97185.97;;;20.00;22.94
64064;BME280;50314;50.618;10.642;2023-05-08T01:41:30;97180.75;;;19.98;23.22
64064;BME280;50314;50.618;10.642;2023-05-08T01:44:15;97186.72;;;19.92;23.67
64064;BME280;50314;50.618;10.642;2023-05-08T01:46:45;97186.41;;;19.95;23.32
64064;BME280;50314;50.618;10.642;2023-05-08T01:49:19;97186.59;;;19.93;23.61
64064;BME280;50314;50.618;10.642;2023-05-08T01:51:48;97175.91;;;19.93;23.36
64064;BME280;50314;50.618;10.642;2023-05-08T01:54:23;97186.72;;;19.92;23.40
64064;BME280;50314;50.618;10.642;2023-05-08T01:56:52;97190.09;;;19.94;23.34
64064;BME280;50314;50.618;10.642;2023-05-08T01:59:21;97197.09;;;19.95;23.24
64064;BME280;50314;50.618;10.642;2023-05-08T02:01:50;97188.56;;;19.91;23.48
64064;BME280;50314;50.618;10.642;2023-05-08T02:04:17;97193.09;;;19.91;23.14
64064;BME280;50314;50.618;10.642;2023-05-08T02:06:44;97194.09;;;19.90;23.49
64064;BME280;50314;50.618;10.642;2023-05-08T02:09:10;97190.72;;;19.88;23.38
64064;BME280;50314;50.618;10.642;2023-05-08T02:11:38;97189.22;;;19.85;23.14
64064;BME280;50314;50.618;10.642;2023-05-08T02:14:06;97185.72;;;19.85;23.26
64064;BME280;50314;50.618;10.642;2023-05-08T02:16:33;97188.38;;;19.85;23.30
64064;BME280;50314;50.618;10.642;2023-05-08T02:19:00;97194.72;;;19.84;23.49
64064;BME280;50314;50.618;10.642;2023-05-08T02:21:27;97189.38;;;19.76;23.67
64064;BME280;50314;50.618;10.642;2023-05-08T02:23:55;97192.38;;;19.81;23.35
64064;BME280;50314;50.618;10.642;2023-05-08T02:26:23;97187.03;;;19.81;23.17
64064;BME280;50314;50.618;10.642;2023-05-08T02:28:52;97191.53;;;19.80;23.53
64064;BME280;50314;50.618;10.642;2023-05-08T02:31:18;97197.72;;;19.81;23.52
64064;BME280;50314;50.618;10.642;2023-05-08T02:33:44;97195.22;;;19.79;23.15
64064;BME280;50314;50.618;10.642;2023-05-08T02:36:14;97190.84;;;19.78;23.45
64064;BME280;50314;50.618;10.642;2023-05-08T02:38:43;97189.38;;;19.76;23.40
64064;BME280;50314;50.618;10.642;2023-05-08T02:41:09;97191.03;;;19.77;23.32
64064;BME280;50314;50.618;10.642;2023-05-08T02:43:36;97187.66;;;19.75;23.24
64064;BME280;50314;50.618;10.642;2023-05-08T02:54:03;97187.78;;;19.65;23.76
64064;BME280;50314;50.618;10.642;2023-05-08T02:56:45;97185.28;;;19.63;23.74
64064;BME280;50314;50.618;10.642;2023-05-08T03:00:07;97196.28;;;19.60;23.95
64064;BME280;50314;50.618;10.642;2023-05-08T03:02:49;97190.09;;;19.60;23.93
64064;BME280;50314;50.618;10.642;2023-05-08T03:05:18;97192.28;;;19.64;23.28
64064;BME280;50314;50.618;10.642;2023-05-08T03:07:49;97192.28;;;19.64;23.28
64064;BME280;50314;50.618;10.642;2023-05-08T03:10:17;97193.13;;;19.65;23.41
64064;BME280;50314;50.618;10.642;2023-05-08T03:12:45;97187.13;;;19.63;23.65
64064;BME280;50314;50.618;10.642;2023-05-08T03:15:17;97185.41;;;19.62;23.82
64064;BME280;50314;50.618;10.642;2023-05-08T03:17:46;97185.28;;;19.63;23.34
64064;BME280;50314;50.618;10.642;2023-05-08T03:20:15;97188.97;;;19.62;23.47
64064;BME280;50314;50.618;10.642;2023-05-08T03:22:43;97196.97;;;19.62;23.58
64064;BME280;50314;50.618;10.642;2023-05-08T03:25:12;97183.75;;;19.61;23.22
64064;BME280;50314;50.618;10.642;2023-05-08T03:27:39;97189.28;;;19.59;23.76
64064;BME280;50314;50.618;10.642;2023-05-08T03:30:06;97184.75;;;19.60;23.58
64064;BME280;50314;50.618;10.642;2023-05-08T03:32:32;97188.44;;;19.59;23.28
64064;BME280;50314;50.618;10.642;2023-05-08T03:34:59;97184.91;;;19.58;23.37
64064;BME280;50314;50.618;10.642;2023-05-08T03:37:28;97182.53;;;19.55;23.49
64064;BME280;50314;50.618;10.642;2023-05-08T03:39:56;97188.75;;;19.56;23.41
64064;BME280;50314;50.618;10.642;2023-05-08T03:42:23;97187.06;;;19.55;23.45
64064;BME280;50314;50.618;10.642;2023-05-08T03:44:52;97185.38;;;19.54;23.53
64064;BME280;50314;50.618;10.642;2023-05-08T03:47:21;97190.72;;;19.54;23.74
64064;BME280;50314;50.618;10.642;2023-05-08T03:49:50;97183.72;;;19.53;23.46
64064;BME280;50314;50.618;10.642;2023-05-08T03:52:18;97183.88;;;19.51;23.57
64064;BME280;50314;50.618;10.642;2023-05-08T03:54:45;97183.88;;;19.51;23.68
64064;BME280;50314;50.618;10.642;2023-05-08T03:57:11;97184.50;;;19.45;23.62
64064;BME280;50314;50.618;10.642;2023-05-08T04:02:43;97179.50;;;19.42;23.08
64064;BME280;50314;50.618;10.642;2023-05-08T04:05:30;97186.91;;;19.38;23.72
64064;BME280;50314;50.618;10.642;2023-05-08T04:08:05;97193.81;;;19.41;23.39
64064;BME280;50314;50.618;10.642;2023-05-08T04:10:41;97193.00;;;19.40;23.29
64064;BME280;50314;50.618;10.642;2023-05-08T04:13:11;97190.19;;;19.42;23.42
64064;BME280;50314;50.618;10.642;2023-05-08T04:15:42;97198.84;;;19.44;23.35
64064;BME280;50314;50.618;10.642;2023-05-08T04:18:16;97194.81;;;19.40;23.29
64064;BME280;50314;50.618;10.642;2023-05-08T04:20:46;97197.31;;;19.41;23.39
64064;BME280;50314;50.618;10.642;2023-05-08T04:23:17;97200.16;;;19.40;23.36
64064;BME280;50314;50.618;10.642;2023-05-08T04:25:45;97192.84;;;19.42;23.22
64064;BME280;50314;50.618;10.642;2023-05-08T04:28:13;97199.84;;;19.43;23.55
64064;BME280;50314;50.618;10.642;2023-05-08T04:30:39;97194.50;;;19.43;23.26
64064;BME280;50314;50.618;10.642;2023-05-08T04:33:06;97194.50;;;19.43;23.50
64064;BME280;50314;50.618;10.642;2023-05-08T04:35:35;97198.19;;;19.42;23.22
64064;BME280;50314;50.618;10.642;2023-05-08T04:38:01;97195.34;;;19.43;23.28
64064;BME280;50314;50.618;10.642;2023-05-08T04:40:27;97189.16;;;19.43;23.34
64064;BME280;50314;50.618;10.642;2023-05-08T04:42:52;97195.34;;;19.43;23.49
64064;BME280;50314;50.618;10.642;2023-05-08T04:45:18;97193.69;;;19.42;23.43
64064;BME280;50314;50.618;10.642;2023-05-08T04:47:43;97189.16;;;19.43;23.27
64064;BME280;50314;50.618;10.642;2023-05-08T04:50:09;97188.34;;;19.42;23.66
64064;BME280;50314;50.618;10.642;2023-05-08T04:52:35;97197.84;;;19.45;23.14
64064;BME280;50314;50.618;10.642;2023-05-08T04:55:00;97200.69;;;19.43;23.25
64064;BME280;50314;50.618;10.642;2023-05-08T04:57:26;97201.53;;;19.44;23.25
64064;BME280;50314;50.618;10.642;2023-05-08T04:59:51;97211.19;;;19.45;23.70
64064;BME280;50314;50.618;10.642;2023-05-08T05:02:17;97205.19;;;19.43;23.40
64064;BME280;50314;50.618;10.642;2023-05-08T05:04:42;97203.19;;;19.45;23.70
64064;BME280;50314;50.618;10.642;2023-05-08T05:07:08;97210.38;;;19.44;23.42
64064;BME280;50314;50.618;10.642;2023-05-08T05:09:33;97207.56;;;19.46;23.47
64064;BME280;50314;50.618;10.642;2023-05-08T05:12:02;97210.22;;;19.46;23.52
64064;BME280;50314;50.618;10.642;2023-05-08T05:14:28;97207.56;;;19.46;23.67
64064;BME280;50314;50.618;10.642;2023-05-08T05:16:54;97207.38;;;19.47;23.49
64064;BME280;50314;50.618;10.642;2023-05-08T05:19:19;97198.22;;;19.50;23.66
64064;BME280;50314;50.618;10.642;2023-05-08T05:21:45;97200.91;;;19.50;23.55
64064;BME280;50314;50.618;10.642;2023-05-08T05:24:10;97200.19;;;19.48;23.71
64064;BME280;50314;50.618;10.642;2023-05-08T05:26:35;97198.41;;;19.48;23.72
64064;BME280;50314;50.618;10.642;2023-05-08T05:29:01;97204.56;;;19.49;23.42
64064;BME280;50314;50.618;10.642;2023-05-08T05:31:27;97203.56;;;19.50;23.50
64064;BME280;50314;50.618;10.642;2023-05-08T05:33:53;97199.22;;;19.49;23.23
64064;BME280;50314;50.618;10.642;2023-05-08T05:36:19;97205.41;;;19.50;23.76
64064;BME280;50314;50.618;10.642;2023-05-08T05:38:44;97209.59;;;19.52;23.37
64064;BME280;50314;50.618;10.642;2023-05-08T05:41:10;97207.91;;;19.51;23.49
64064;BME280;50314;50.618;10.642;2023-05-08T05:43:35;97212.28;;;19.52;23.56
64064;BME280;50314;50.618;10.642;2023-05-08T05:46:08;97214.25;;;19.50;23.65
64064;BME280;50314;50.618;10.642;2023-05-08T05:48:34;97213.78;;;19.55;23.56
64064;BME280;50314;50.618;10.642;2023-05-08T05:51:00;97221.66;;;19.56;23.70
64064;BME280;50314;50.618;10.642;2023-05-08T05:53:26;97217.81;;;19.59;23.71
64064;BME280;50314;50.618;10.642;2023-05-08T05:55:51;97218.50;;;19.61;23.65
64064;BME280;50314;50.618;10.642;2023-05-08T05:58:17;97219.84;;;19.65;23.91
64064;BME280;50314;50.618;10.642;2023-05-08T06:00:43;97224.72;;;19.69;23.71
64064;BME280;50314;50.618;10.642;2023-05-08T06:03:09;97225.06;;;19.75;23.80
64064;BME280;50314;50.618;10.642;2023-05-08T06:05:36;97229.09;;;19.79;23.62
64064;BME280;50314;50.618;10.642;2023-05-08T06:08:01;97225.97;;;19.83;23.66
64064;BME280;50314;50.618;10.642;2023-05-08T06:10:27;97219.31;;;19.87;23.49
64064;BME280;50314;50.618;10.642;2023-05-08T06:12:52;97220.66;;;19.91;23.87
64064;BME280;50314;50.618;10.642;2023-05-08T06:15:18;97224.69;;;19.95;23.75
64064;BME280;50314;50.618;10.642;2023-05-08T06:17:44;97220.75;;;20.00;23.58
64064;BME280;50314;50.618;10.642;2023-05-08T06:20:10;97220.25;;;20.04;23.88
64064;BME280;50314;50.618;10.642;2023-05-08T06:22:35;97227.78;;;20.09;23.80
64064;BME280;50314;50.618;10.642;2023-05-08T06:25:03;97226.47;;;20.13;23.93
64064;BME280;50314;50.618;10.642;2023-05-08T06:27:31;97227.66;;;20.18;23.64
64064;BME280;50314;50.618;10.642;2023-05-08T06:29:57;97225.50;;;20.22;24.12
64064;BME280;50314;50.618;10.642;2023-05-08T06:32:22;97225.03;;;20.27;24.10
64064;BME280;50314;50.618;10.642;2023-05-08T06:34:48;97230.56;;;20.33;23.88
64064;BME280;50314;50.618;10.642;2023-05-08T06:37:13;97234.41;;;20.39;24.30
64064;BME280;50314;50.618;10.642;2023-05-08T06:39:38;97234.75;;;20.44;23.97
64064;BME280;50314;50.618;10.642;2023-05-08T06:42:04;97233.25;;;20.50;24.10
64064;BME280;50314;50.618;10.642;2023-05-08T06:44:31;97233.44;;;20.56;23.96
64064;BME280;50314;50.618;10.642;2023-05-08T06:46:57;97229.00;;;20.65;23.90
64064;BME280;50314;50.618;10.642;2023-05-08T06:49:22;97227.50;;;20.71;24.08
64064;BME280;50314;50.618;10.642;2023-05-08T06:51:48;97229.34;;;20.78;23.82
64064;BME280;50314;50.618;10.642;2023-05-08T06:54:13;97217.16;;;20.84;24.01
64064;BME280;50314;50.618;10.642;2023-05-08T06:56:39;97222.69;;;20.91;23.91
64064;BME280;50314;50.618;10.642;2023-05-08T06:59:04;97228.22;;;20.97;23.88
64064;BME280;50314;50.618;10.642;2023-05-08T07:01:30;97227.38;;;21.05;24.07
64064;BME280;50314;50.618;10.642;2023-05-08T07:03:55;97226.53;;;21.12;23.61
64064;BME280;50314;50.618;10.642;2023-05-08T07:06:21;97216.00;;;21.19;23.68
64064;BME280;50314;50.618;10.642;2023-05-08T07:08:46;97219.53;;;21.28;23.86
64064;BME280;50314;50.618;10.642;2023-05-08T07:11:12;97217.00;;;21.34;23.34
64064;BME280;50314;50.618;10.642;2023-05-08T07:13:37;97221.50;;;21.42;23.25
64064;BME280;50314;50.618;10.642;2023-05-08T07:16:10;97220.84;;;21.48;23.38
64064;BME280;50314;50.618;10.642;2023-05-08T07:18:36;97221.50;;;21.58;23.59
64064;BME280;50314;50.618;10.642;2023-05-08T07:21:02;97223.31;;;21.66;23.11
64064;BME280;50314;50.618;10.642;2023-05-08T07:23:28;97227.81;;;21.74;22.98
64064;BME280;50314;50.618;10.642;2023-05-08T07:25:53;97227.16;;;21.80;22.46
64064;BME280;50314;50.618;10.642;2023-05-08T07:28:19;97222.97;;;21.86;21.97
64064;BME280;50314;50.618;10.642;2023-05-08T07:30:45;97224.97;;;21.92;21.72
64064;BME280;50314;50.618;10.642;2023-05-08T07:33:10;97228.97;;;21.96;21.53
64064;BME280;50314;50.618;10.642;2023-05-08T07:35:38;97230.09;;;22.01;21.39
64064;BME280;50314;50.618;10.642;2023-05-08T07:38:03;97231.25;;;22.07;21.44
64064;BME280;50314;50.618;10.642;2023-05-08T07:40:29;97227.06;;;22.13;20.83
64064;BME280;50314;50.618;10.642;2023-05-08T07:42:54;97232.72;;;22.18;20.74
64064;BME280;50314;50.618;10.642;2023-05-08T07:45:20;97222.31;;;22.23;20.65
64064;BME280;50314;50.618;10.642;2023-05-08T07:47:50;97226.31;;;22.27;20.80
64064;BME280;50314;50.618;10.642;2023-05-08T07:50:16;97226.47;;;22.34;20.41
64064;BME280;50314;50.618;10.642;2023-05-08T07:52:41;97222.28;;;22.39;20.20
64064;BME280;50314;50.618;10.642;2023-05-08T07:55:07;97228.94;;;22.43;20.40
64064;BME280;50314;50.618;10.642;2023-05-08T07:57:37;97228.41;;;22.48;20.03
64064;BME280;50314;50.618;10.642;2023-05-08T08:00:04;97231.06;;;22.56;20.30
64064;BME280;50314;50.618;10.642;2023-05-08T08:02:31;97226.19;;;22.60;20.11
64064;BME280;50314;50.618;10.642;2023-05-08T08:04:57;97220.94;;;22.66;19.90
64064;BME280;50314;50.618;10.642;2023-05-08T08:07:23;97229.13;;;22.73;19.81
64064;BME280;50314;50.618;10.642;2023-05-08T08:09:48;97223.88;;;22.80;19.82
64064;BME280;50314;50.618;10.642;2023-05-08T08:12:13;97223.81;;;22.88;19.75
64064;BME280;50314;50.618;10.642;2023-05-08T08:14:39;97217.38;;;22.97;19.43
64064;BME280;50314;50.618;10.642;2023-05-08T08:17:05;97223.16;;;23.09;19.51
64064;BME280;50314;50.618;10.642;2023-05-08T08:19:30;97220.69;;;23.22;19.53
64064;BME280;50314;50.618;10.642;2023-05-08T08:21:56;97216.00;;;23.39;19.34
64064;BME280;50314;50.618;10.642;2023-05-08T08:24:22;97218.38;;;23.57;19.36
64064;BME280;50314;50.618;10.642;2023-05-08T08:26:47;97223.22;;;23.76;18.99
64064;BME280;50314;50.618;10.642;2023-05-08T08:29:13;97215.47;;;23.96;18.61
64064;BME280;50314;50.618;10.642;2023-05-08T08:31:38;97220.00;;;24.10;18.67
64064;BME280;50314;50.618;10.642;2023-05-08T08:34:04;97221.00;;;24.24;18.54
64064;BME280;50314;50.618;10.642;2023-05-08T08:36:29;97216.34;;;24.33;17.72
64064;BME280;50314;50.618;10.642;2023-05-08T08:38:54;97216.88;;;24.43;17.97
64064;BME280;50314;50.618;10.642;2023-05-08T08:41:20;97216.88;;;24.58;17.51
64064;BME280;50314;50.618;10.642;2023-05-08T08:43:46;97213.94;;;24.74;17.77
64064;BME280;50314;50.618;10.642;2023-05-08T08:46:13;97207.94;;;24.94;17.53
64064;BME280;50314;50.618;10.642;2023-05-08T08:48:44;97204.34;;;25.08;17.50
64064;BME280;50314;50.618;10.642;2023-05-08T08:51:41;97209.41;;;25.18;17.23
64064;BME280;50314;50.618;10.642;2023-05-08T08:54:09;97201.38;;;25.24;16.98
64064;BME280;50314;50.618;10.642;2023-05-08T08:56:38;97201.09;;;25.41;17.00
64064;BME280;50314;50.618;10.642;2023-05-08T08:59:04;97191.84;;;25.50;17.26
64064;BME280;50314;50.618;10.642;2023-05-08T09:01:33;97199.78;;;25.58;17.23
64064;BME280;50314;50.618;10.642;2023-05-08T09:04:00;97199.00;;;25.64;17.34
64064;BME280;50314;50.618;10.642;2023-05-08T09:06:26;97200.94;;;25.70;17.65
64064;BME280;50314;50.618;10.642;2023-05-08T09:08:55;97198.22;;;25.70;17.69
64064;BME280;50314;50.618;10.642;2023-05-08T09:11:22;97199.31;;;25.83;17.95
64064;BME280;50314;50.618;10.642;2023-05-08T09:13:48;97202.88;;;25.90;17.92
64064;BME280;50314;50.618;10.642;2023-05-08T09:16:14;97202.97;;;26.03;17.77
64064;BME280;50314;50.618;10.642;2023-05-08T09:18:39;97196.25;;;26.20;17.88
64064;BME280;50314;50.618;10.642;2023-05-08T09:21:05;97197.53;;;26.38;17.33
64064;BME280;50314;50.618;10.642;2023-05-08T09:23:31;97197.63;;;26.58;16.89
64064;BME280;50314;50.618;10.642;2023-05-08T09:25:56;97201.22;;;26.78;16.82
64064;BME280;50314;50.618;10.642;2023-05-08T09:28:23;97202.72;;;27.01;15.98
64064;BME280;50314;50.618;10.642;2023-05-08T09:30:53;97200.66;;;27.23;16.35
64064;BME280;50314;50.618;10.642;2023-05-08T09:33:20;97202.94;;;27.46;15.80
64064;BME280;50314;50.618;10.642;2023-05-08T09:35:47;97201.47;;;27.70;15.23
64064;BME280;50314;50.618;10.642;2023-05-08T09:38:32;97195.38;;;27.94;15.38
64064;BME280;50314;50.618;10.642;2023-05-08T09:41:10;97204.06;;;28.23;15.07
64064;BME280;50314;50.618;10.642;2023-05-08T09:43:39;97194.16;;;28.48;14.59
64064;BME280;50314;50.618;10.642;2023-05-08T09:46:25;97196.53;;;28.70;14.81
64064;BME280;50314;50.618;10.642;2023-05-08T09:48:57;97202.69;;;28.90;14.37
64064;BME280;50314;50.618;10.642;2023-05-08T09:51:23;97200.03;;;29.15;14.27
64064;BME280;50314;50.618;10.642;2023-05-08T09:53:50;97197.72;;;29.44;14.22
64064;BME280;50314;50.618;10.642;2023-05-08T09:56:37;97198.13;;;29.66;13.72
64064;BME280;50314;50.618;10.642;2023-05-08T09:59:23;97197.91;;;29.92;13.56
64064;BME280;50314;50.618;10.642;2023-05-08T10:01:50;97192.75;;;30.21;13.49
64064;BME280;50314;50.618;10.642;2023-05-08T10:04:16;97201.03;;;30.44;13.46
64064;BME280;50314;50.618;10.642;2023-05-08T10:06:42;97197.22;;;30.64;13.12
64064;BME280;50314;50.618;10.642;2023-05-08T10:09:11;97188.56;;;30.85;12.83
64064;BME280;50314;50.618;10.642;2023-05-08T10:11:47;97184.50;;;31.06;12.84
64064;BME280;50314;50.618;10.642;2023-05-08T10:14:16;97190.38;;;31.33;12.58
64064;BME280;50314;50.618;10.642;2023-05-08T10:16:43;97179.34;;;31.52;12.66
64064;BME280;50314;50.618;10.642;2023-05-08T10:19:14;97185.25;;;31.49;12.01
64064;BME280;50314;50.618;10.642;2023-05-08T10:21:42;97182.31;;;31.39;12.57
64064;BME280;50314;50.618;10.642;2023-05-08T10:24:20;97184.19;;;31.26;12.76
64064;BME280;50314;50.618;10.642;2023-05-08T10:26:56;97174.72;;;31.17;12.79
64064;BME280;50314;50.618;10.642;2023-05-08T10:29:36;97183.97;;;31.28;12.55
64064;BME280;50314;50.618;10.642;2023-05-08T10:32:08;97190.09;;;31.47;12.41
64064;BME280;50314;50.618;10.642;2023-05-08T10:34:34;97185.53;;;31.59;12.86
64064;BME280;50314;50.618;10.642;2023-05-08T10:37:04;97185.16;;;31.79;12.56
64064;BME280;50314;50.618;10.642;2023-05-08T10:39:33;97174.00;;;32.04;12.69
64064;BME280;50314;50.618;10.642;2023-05-08T10:41:59;97174.53;;;32.29;12.75
64064;BME280;50314;50.618;10.642;2023-05-08T10:44:26;97175.91;;;32.56;12.24
64064;BME280;50314;50.618;10.642;2023-05-08T10:47:11;97181.06;;;32.69;12.09
64064;BME280;50314;50.618;10.642;2023-05-08T10:52:41;97177.06;;;33.05;12.00
64064;BME280;50314;50.618;10.642;2023-05-08T10:57:37;97173.69;;;33.49;11.90
64064;BME280;50314;50.618;10.642;2023-05-08T11:00:03;97175.91;;;33.68;12.09
64064;BME280;50314;50.618;10.642;2023-05-08T11:02:29;97178.47;;;33.58;12.13
64064;BME280;50314;50.618;10.642;2023-05-08T11:05:16;97177.75;;;33.63;11.87
64064;BME280;50314;50.618;10.642;2023-05-08T11:07:58;97181.00;;;33.43;11.96
64064;BME280;50314;50.618;10.642;2023-05-08T11:10:30;97184.63;;;33.32;12.07
64064;BME280;50314;50.618;10.642;2023-05-08T11:12:56;97186.66;;;33.25;12.34
64064;BME280;50314;50.618;10.642;2023-05-08T11:15:36;97185.41;;;33.15;12.43
64064;BME280;50314;50.618;10.642;2023-05-08T11:18:03;97185.41;;;32.98;12.54
64064;BME280;50314;50.618;10.642;2023-05-08T11:20:40;97181.94;;;33.03;12.52
64064;BME280;50314;50.618;10.642;2023-05-08T11:23:35;97180.63;;;32.89;12.60
64064;BME280;50314;50.618;10.642;2023-05-08T11:26:05;97183.53;;;32.70;12.74
64064;BME280;50314;50.618;10.642;2023-05-08T11:28:55;97186.72;;;32.39;13.07
64064;BME280;50314;50.618;10.642;2023-05-08T11:31:21;97175.28;;;32.25;13.31
64064;BME280;50314;50.618;10.642;2023-05-08T11:33:47;97179.19;;;32.17;13.46
64064;BME280;50314;50.618;10.642;2023-05-08T11:36:20;97174.00;;;32.04;13.86
64064;BME280;50314;50.618;10.642;2023-05-08T11:39:06;97165.50;;;31.89;13.78
64064;BME280;50314;50.618;10.642;2023-05-08T11:41:32;97174.88;;;31.81;13.84
64064;BME280;50314;50.618;10.642;2023-05-08T11:46:52;97161.94;;;31.53;13.99
64064;BME280;50314;50.618;10.642;2023-05-08T11:49:23;97171.66;;;31.49;14.03
64064;BME280;50314;50.618;10.642;2023-05-08T11:51:51;97164.56;;;31.48;14.27
64064;BME280;50314;50.618;10.642;2023-05-08T11:54:22;97159.00;;;31.43;14.25
64064;BME280;50314;50.618;10.642;2023-05-08T11:56:48;97165.88;;;31.33;13.90
64064;BME280;50314;50.618;10.642;2023-05-08T11:59:15;97165.50;;;31.30;14.16
64064;BME280;50314;50.618;10.642;2023-05-08T12:01:41;97169.19;;;31.24;14.37
64064;BME280;50314;50.618;10.642;2023-05-08T12:04:08;97170.19;;;31.11;14.21
64064;BME280;50314;50.618;10.642;2023-05-08T12:06:36;97167.44;;;30.99;14.32
64064;BME280;50314;50.618;10.642;2023-05-08T12:09:11;97173.19;;;30.79;13.40
64064;BME280;50314;50.618;10.642;2023-05-08T12:11:36;97170.88;;;30.64;13.38
64064;BME280;50314;50.618;10.642;2023-05-08T12:14:03;97175.31;;;30.47;13.42
64064;BME280;50314;50.618;10.642;2023-05-08T12:16:28;97170.50;;;30.31;13.18
64064;BME280;50314;50.618;10.642;2023-05-08T12:18:55;97166.50;;;30.15;13.45
64064;BME280;50314;50.618;10.642;2023-05-08T12:21:21;97165.44;;;29.97;13.47
64064;BME280;50314;50.618;10.642;2023-05-08T12:23:47;97163.53;;;29.80;13.57
64064;BME280;50314;50.618;10.642;2023-05-08T12:26:14;97163.31;;;29.63;13.79
64064;BME280;50314;50.618;10.642;2023-05-08T12:28:42;97168.50;;;29.46;13.86
64064;BME280;50314;50.618;10.642;2023-05-08T12:31:08;97167.75;;;29.32;14.12
64064;BME280;50314;50.618;10.642;2023-05-08T12:33:34;97163.28;;;29.19;14.01
64064;BME280;50314;50.618;10.642;2023-05-08T12:36:01;97171.31;;;29.08;14.01
64064;BME280;50314;50.618;10.642;2023-05-08T12:38:27;97167.19;;;28.98;14.03
64064;BME280;50314;50.618;10.642;2023-05-08T12:40:53;97173.06;;;28.89;14.39
64064;BME280;50314;50.618;10.642;2023-05-08T12:43:20;97163.16;;;28.76;14.41
64064;BME280;50314;50.618;10.642;2023-05-08T12:45:49;97174.06;;;28.63;14.40
64064;BME280;50314;50.618;10.642;2023-05-08T12:48:15;97170.81;;;28.54;14.54
64064;BME280;50314;50.618;10.642;2023-05-08T12:50:42;97163.31;;;28.43;14.54
64064;BME280;50314;50.618;10.642;2023-05-08T12:53:10;97158.41;;;28.33;14.38
64064;BME280;50314;50.618;10.642;2023-05-08T12:55:37;97169.69;;;28.23;14.83
64064;BME280;50314;50.618;10.642;2023-05-08T12:58:08;97153.28;;;28.11;14.76
64064;BME280;50314;50.618;10.642;2023-05-08T13:00:41;97148.94;;;28.04;14.67
64064;BME280;50314;50.618;10.642;2023-05-08T13:03:09;97156.25;;;27.97;14.64
64064;BME280;50314;50.618;10.642;2023-05-08T13:05:42;97154.16;;;27.92;15.26
64064;BME280;50314;50.618;10.642;2023-05-08T13:08:09;97149.59;;;27.86;14.94
64064;BME280;50314;50.618;10.642;2023-05-08T13:13:15;97143.84;;;27.69;14.96
64064;BME280;50314;50.618;10.642;2023-05-08T13:15:41;97145.06;;;27.73;14.92
64064;BME280;50314;50.618;10.642;2023-05-08T13:18:06;97143.59;;;27.71;15.35
64064;BME280;50314;50.618;10.642;2023-05-08T13:20:35;97143.44;;;27.66;14.73
64064;BME280;50314;50.618;10.642;2023-05-08T13:23:01;97138.22;;;27.57;14.76
64064;BME280;50314;50.618;10.642;2023-05-08T13:25:27;97141.78;;;27.51;15.17
64064;BME280;50314;50.618;10.642;2023-05-08T13:27:53;97138.22;;;27.44;14.85
64064;BME280;50314;50.618;10.642;2023-05-08T13:30:19;97134.50;;;27.38;15.44
64064;BME280;50314;50.618;10.642;2023-05-08T13:32:49;97135.53;;;27.31;14.98
64064;BME280;50314;50.618;10.642;2023-05-08T13:35:15;97132.00;;;27.24;15.05